Terminal Aerodrome Forecast
Issued by NWS

Home | Current Version | Previous Version | Text Only | Print | Product List | Glossary On
Versions: 1 2 3 4 5 6 7 8 9 10 11 12 13 14 15 16 17
000
FTUS45 KGJT 161731
TAFTEX
TAF
KTEX 161731Z 1618/1718 VRB03KT P6SM SCT130 BKN200
     FM162000 26008KT P6SM BKN130
     FM170200 13005KT P6SM BKN110
     FM170800 14004KT P6SM FEW130 SCT200
     FM171200 12004KT P6SM SCT100 BKN130=

USA.gov is the U.S. government's official web portal to all federal, state and local government web resources and services.